Record high temperature 25.9°C Record low temperature 4.4°C Record high gust 62.7 km/h Record high average 46.1 km/h Record daily rain 58.7 mm Record low windchill -49.3°C Record high barometer 1032.3 hPa Record low barometer 989.6 hPa
Daily high pressure 1030.5 hPa Daily low pressure 1026.1 hPa Daily low windchill 12.3°C Daily high heat index 25.5°C Daily high gust speed 16.7 kmh SSW Daily high average speed 12.2 kmh SSW
Stazione meteo Crema centro
LAST READING AT TIME: 22:50 DATE: 12 April 2024, time of next update: 22:55
Current WeatherNight time/Dry/Clear Current Temperature 20.1°C (68.1°F) (Heat Index 20.1°C ), Apparent temp 21.3°C
Maximum Temperature (since midnight)25.5°C at: 18:17 Minimum Temperature (since midnight)12.3°C at: 06:37
Average windspeed (ten minute)0.0 kmh (0.0 kts) Wind Direction (ten minute)SSE (158°)
Windchill Temperature 20.1°C Maximum Gust (last hour)0.0 kmh (0.0 kts) at: 22:00
Maximum Gust (since midnight)16.7 kmh (9.0 kts) at: 15:18 Maximum 1 minute average (since midnight)12.2 kmh (6.6 kts) at: 14:57
Rainfall (last hour)0.0 mm Rainfall (since midnight)0.0 mm (0.00 in.)---
Rainfall This month 51.1 mm (2.01 in.) Rainfall To date this year 583.7 mm (22.98 in.)
Maximum rain per minute (last hour)0.0 mm/min Maximum rain per hour (last 6 hours)0.0 mm/hour
Yesterdays rainfall 0.0 mm DewPoint 14.0°C (Wet Bulb :16.5°C )
Humidity 68 %, Humidex 23.4°C Barometer corrected to msl1027.1 hPa (QNH 1027.1 hPa
Pressure change +0.4 hPa (last hour) Trend (last hour)STEADY
Pressure change (last 12 hours)-3.3 hPa Pressure change (last 6 hours)-0.1 hPa
Current Solar 0 W/mē
Maximum solar (since midnight) 0 W/mē Minimum solar (since midnight)0 W/mē
Current 00:00 hours of sunshine today, current sky: Night time/Dry/Clear
Sunshine hours for the year: 00:00 hrs Sunshine hours for the month: 00:00 hrs
Current evapotranspiration rate 1.2 mm per day. Yesterday's reading 1.2

This page is updated from recent data collected by a DAVIS VANTAGE PRO weather station Use the Reload or Refresh facility on your browser to retrieve the latest data.

Status report of weather station: IK2CHZ - Crema meteo



Weather report/warning/Metars

Milano / Linate, Italy (LIML) 45-26N 009-17E 103M
Apr 12, 2024 - 04:20 PM EDT / 2024.04.12 2020 UTC
Wind: from the N (010 degrees) at 1 MPH (1 KT):0
Visibility: greater than 7 mile(s):0
Temperature: 64 F (18 C)
Dew Point: 57 F (14 C)
Relative Humidity: 77%
Pressure (altimeter): 30.33 in. Hg (1027 hPa)
ob: LIML 122020Z 01001KT CAVOK 18/14 Q1027 NOSIG
cycle: 20
Bergamo / Orio Al Serio, Italy (LIME) 45-40N 009-42E 237M
Apr 12, 2024 - 04:20 PM EDT / 2024.04.12 2020 UTC
Wind: from the NNE (020 degrees) at 5 MPH (4 KT):0
Visibility: greater than 7 mile(s):0
Temperature: 62 F (17 C)
Dew Point: 55 F (13 C)
Relative Humidity: 77%
Pressure (altimeter): 30.33 in. Hg (1027 hPa)
ob: LIME 122020Z AUTO 02004KT 9999 NCD 17/13 Q1027
cycle: 20
Piacenza, Italy (LIMS) 44-55N 009-44E 138M
Apr 12, 2024 - 01:55 PM EDT / 2024.04.12 1755 UTC
Wind: from the E (090 degrees) at 3 MPH (3 KT):0
Visibility: greater than 7 mile(s):0
Temperature: 69 F (21 C)
Dew Point: 64 F (18 C)
Relative Humidity: 82%
Pressure (altimeter): 30.30 in. Hg (1026 hPa)
ob: LIMS 121755Z 09003KT CAVOK 21/18 Q1026
cycle: 18